createdAt,value
2023-03-01T00:00:25.326Z,30.77
2023-03-01T00:02:52.115Z,29.67
2023-03-01T00:05:18.909Z,28.58
2023-03-01T00:07:45.694Z,28.13
2023-03-01T00:10:12.587Z,25.48
2023-03-01T00:12:39.325Z,28.42
2023-03-01T00:15:06.530Z,28.42
2023-03-01T00:17:33.294Z,26.77
2023-03-01T00:20:00.091Z,23.85
2023-03-01T00:22:27.982Z,24.08
2023-03-01T00:24:54.897Z,27.20
2023-03-01T00:27:21.694Z,26.25
2023-03-01T00:29:48.363Z,26.95
2023-03-01T00:32:15.276Z,27.77
2023-03-01T00:34:42.035Z,29.17
2023-03-01T00:37:08.814Z,27.50
2023-03-01T00:39:35.562Z,27.13
2023-03-01T00:42:02.260Z,23.60
2023-03-01T00:44:29.048Z,30.75
2023-03-01T00:46:55.859Z,23.80
2023-03-01T00:49:22.745Z,23.88
2023-03-01T00:51:49.514Z,26.30
2023-03-01T00:54:16.365Z,25.15
2023-03-01T00:56:45.158Z,22.20
2023-03-01T00:59:11.970Z,21.83
2023-03-01T01:01:38.905Z,19.05
2023-03-01T01:04:09.017Z,23.10
2023-03-01T01:06:44.056Z,20.90
2023-03-01T01:09:13.129Z,20.92
2023-03-01T01:11:39.842Z,18.77
2023-03-01T01:14:06.724Z,23.45
2023-03-01T01:16:33.862Z,22.80
2023-03-01T01:19:00.904Z,29.10
2023-03-01T01:21:28.475Z,28.60
2023-03-01T01:23:56.287Z,30.25
2023-03-01T01:26:25.894Z,34.38
2023-03-01T01:28:53.863Z,29.95
2023-03-01T01:31:21.176Z,36.75
2023-03-01T01:33:47.946Z,39.72
2023-03-01T01:36:14.786Z,33.03
2023-03-01T01:38:41.587Z,30.33
2023-03-01T01:41:08.487Z,28.55
2023-03-01T01:43:42.786Z,27.38
2023-03-01T01:46:21.548Z,27.75
2023-03-01T01:48:56.744Z,32.25
2023-03-01T01:51:31.031Z,29.83
2023-03-01T01:54:01.397Z,28.08
2023-03-01T01:56:30.188Z,30.50
2023-03-01T01:58:57.807Z,28.33
2023-03-01T02:01:24.784Z,32.97
2023-03-01T02:03:52.372Z,26.85
2023-03-01T02:06:22.668Z,29.65
2023-03-01T02:08:54.675Z,27.65
2023-03-01T02:11:21.897Z,26.25
2023-03-01T02:13:49.536Z,28.00
2023-03-01T02:16:17.333Z,28.70
2023-03-01T02:18:45.337Z,31.38
2023-03-01T02:21:21.278Z,26.13
2023-03-01T02:23:48.346Z,30.25
2023-03-01T02:26:41.480Z,27.90
2023-03-01T02:29:08.568Z,25.85
2023-03-01T02:31:35.400Z,26.77
2023-03-01T02:34:03.397Z,25.83
2023-03-01T02:36:34.788Z,28.58
2023-03-01T02:39:03.960Z,23.90
2023-03-01T02:41:35.976Z,28.75
2023-03-01T02:44:04.066Z,24.27
2023-03-01T02:46:31.128Z,26.85
2023-03-01T02:48:59.652Z,24.75
2023-03-01T02:51:32.319Z,29.33
2023-03-01T02:54:11.300Z,29.00
2023-03-01T02:56:38.409Z,28.42
2023-03-01T02:59:05.500Z,29.35
2023-03-01T03:01:32.282Z,25.48
2023-03-01T03:04:15.213Z,30.77
2023-03-01T03:06:42.042Z,25.17
2023-03-01T03:09:08.731Z,26.83
2023-03-01T03:11:35.520Z,28.20
2023-03-01T03:14:02.576Z,28.73
2023-03-01T03:16:29.833Z,25.20
2023-03-01T03:18:57.036Z,25.77
2023-03-01T03:21:25.962Z,27.15
2023-03-01T03:23:52.754Z,22.85
2023-03-01T03:26:19.504Z,29.15
2023-03-01T03:28:46.336Z,28.00
2023-03-01T03:31:13.231Z,27.00
2023-03-01T03:33:40.068Z,29.35
2023-03-01T03:36:07.309Z,29.40
2023-03-01T03:38:34.063Z,27.67
2023-03-01T03:41:04.594Z,36.65
2023-03-01T03:43:34.417Z,33.05
2023-03-01T03:46:01.803Z,28.63
2023-03-01T03:48:28.602Z,27.52
2023-03-01T03:50:56.873Z,21.17
2023-03-01T03:53:26.222Z,28.17
2023-03-01T03:55:53.235Z,26.60
2023-03-01T03:58:22.410Z,32.42
2023-03-01T04:00:52.584Z,39.35
2023-03-01T04:03:20.632Z,29.98
2023-03-01T04:05:47.967Z,30.83
2023-03-01T04:08:15.134Z,37.67
2023-03-01T04:10:44.661Z,39.97
2023-03-01T04:13:15.210Z,33.38
2023-03-01T04:15:42.130Z,37.13
2023-03-01T04:18:12.822Z,40.25
2023-03-01T04:20:39.751Z,37.20
2023-03-01T04:23:09.189Z,42.58
2023-03-01T04:25:35.928Z,34.63
2023-03-01T04:28:02.792Z,38.03
2023-03-01T04:30:29.532Z,38.53
2023-03-01T04:32:56.267Z,37.60
2023-03-01T04:35:23.062Z,36.85
2023-03-01T04:37:52.681Z,37.38
2023-03-01T04:40:19.506Z,41.08
2023-03-01T04:42:46.303Z,33.65
2023-03-01T04:45:13.092Z,39.97
2023-03-01T04:47:41.317Z,33.92
2023-03-01T04:50:09.154Z,33.75
2023-03-01T04:52:36.226Z,31.52
2023-03-01T04:55:03.461Z,37.53
2023-03-01T04:57:30.841Z,35.75
2023-03-01T04:59:57.619Z,32.40
2023-03-01T05:02:24.498Z,39.20
2023-03-01T05:04:51.868Z,41.25
2023-03-01T05:07:18.806Z,42.72
2023-03-01T05:09:49.040Z,36.17
2023-03-01T05:12:16.288Z,41.25
2023-03-01T05:14:43.034Z,38.05
2023-03-01T05:17:09.816Z,34.42
2023-03-01T05:19:36.805Z,38.15
2023-03-01T05:22:03.513Z,37.95
2023-03-01T05:24:31.382Z,37.40
2023-03-01T05:26:58.466Z,36.65
2023-03-01T05:29:26.692Z,40.38
2023-03-01T05:31:57.760Z,34.45
2023-03-01T05:34:43.260Z,32.92
2023-03-01T05:37:09.985Z,28.45
2023-03-01T05:39:37.456Z,38.00
2023-03-01T05:42:05.979Z,36.67
2023-03-01T05:44:32.628Z,38.55
2023-03-01T05:46:59.303Z,34.40
2023-03-01T05:49:26.255Z,38.30
2023-03-01T05:51:54.265Z,40.55
2023-03-01T05:54:22.154Z,40.53
2023-03-01T05:56:49.229Z,42.75
2023-03-01T05:59:17.995Z,37.85
2023-03-01T06:01:44.861Z,42.70
2023-03-01T06:04:11.865Z,44.17
2023-03-01T06:06:39.003Z,46.67
2023-03-01T06:09:06.892Z,36.47
2023-03-01T06:11:35.288Z,37.45
2023-03-01T06:14:02.100Z,46.65
2023-03-01T06:16:29.270Z,42.20
2023-03-01T06:18:56.327Z,45.88
2023-03-01T06:21:23.066Z,40.40
2023-03-01T06:23:49.844Z,39.88
2023-03-01T06:26:16.655Z,43.58
2023-03-01T06:28:43.402Z,46.70
2023-03-01T06:31:10.230Z,42.17
2023-03-01T06:33:37.052Z,49.60
2023-03-01T06:36:04.090Z,51.05
2023-03-01T06:38:31.140Z,43.85
2023-03-01T06:40:58.040Z,47.95
2023-03-01T06:43:25.355Z,52.38
2023-03-01T06:45:52.148Z,50.50
2023-03-01T06:48:18.978Z,49.17
2023-03-01T06:50:45.805Z,49.95
2023-03-01T06:53:12.695Z,46.75
2023-03-01T06:55:39.987Z,45.65
2023-03-01T06:58:06.664Z,44.70
2023-03-01T07:00:33.958Z,42.70
2023-03-01T07:03:03.004Z,41.33
2023-03-01T07:05:31.554Z,48.17
2023-03-01T07:07:58.434Z,46.78
2023-03-01T07:10:25.619Z,49.85
2023-03-01T07:12:56.469Z,48.25
2023-03-01T07:15:23.319Z,48.67
2023-03-01T07:17:50.113Z,48.00
2023-03-01T07:20:17.472Z,40.35
2023-03-01T07:22:44.314Z,42.45
2023-03-01T07:25:12.165Z,48.75
2023-03-01T07:27:39.279Z,47.97
2023-03-01T07:30:06.675Z,48.30
2023-03-01T07:32:33.502Z,45.35
2023-03-01T07:35:00.217Z,40.47
2023-03-01T07:37:27.480Z,39.05
2023-03-01T07:39:54.208Z,47.47
2023-03-01T07:42:21.104Z,47.67
2023-03-01T07:44:48.989Z,47.97
2023-03-01T07:47:16.009Z,50.72
2023-03-01T07:49:42.750Z,48.25
2023-03-01T07:52:12.015Z,39.50
2023-03-01T07:54:39.889Z,41.58
2023-03-01T07:57:06.704Z,40.10
2023-03-01T07:59:33.416Z,30.55
2023-03-01T08:02:00.378Z,42.20
2023-03-01T08:04:27.391Z,35.75
2023-03-01T08:06:57.735Z,37.85
2023-03-01T08:09:24.595Z,34.03
2023-03-01T08:11:51.464Z,28.00
2023-03-01T08:14:18.276Z,25.40
2023-03-01T08:16:45.116Z,23.60
2023-03-01T08:19:13.222Z,27.13
2023-03-01T08:21:40.121Z,17.65
2023-03-01T08:24:07.963Z,25.10
2023-03-01T08:26:37.968Z,23.25
2023-03-01T08:29:06.390Z,19.60
2023-03-01T08:31:38.718Z,17.52
2023-03-01T08:34:08.727Z,16.63
2023-03-01T08:36:41.096Z,17.83
2023-03-01T08:39:09.857Z,21.30
2023-03-01T08:41:37.258Z,19.42
2023-03-01T08:44:04.444Z,20.60
2023-03-01T08:46:33.936Z,19.55
2023-03-01T08:49:00.973Z,25.27
2023-03-01T08:51:27.995Z,20.60
2023-03-01T08:53:54.874Z,20.40
2023-03-01T08:56:21.633Z,21.90
2023-03-01T08:58:49.609Z,18.15
2023-03-01T09:01:18.863Z,20.80
2023-03-01T09:03:46.219Z,19.92
2023-03-01T09:06:13.435Z,32.80
2023-03-01T09:08:42.866Z,25.52
2023-03-01T09:11:11.992Z,20.70
2023-03-01T09:13:38.726Z,19.92
2023-03-01T09:16:09.524Z,18.38
2023-03-01T09:18:36.845Z,17.63
2023-03-01T09:21:08.837Z,17.92
2023-03-01T09:23:37.322Z,19.27
2023-03-01T09:26:04.479Z,12.20
2023-03-01T09:28:31.273Z,12.63
2023-03-01T09:31:01.911Z,12.25
2023-03-01T09:33:29.918Z,20.17
2023-03-01T09:36:01.387Z,11.35
2023-03-01T09:38:28.533Z,9.98
2023-03-01T09:40:55.645Z,10.23
2023-03-01T09:46:14.692Z,13.55
2023-03-01T09:48:52.707Z,15.93
2023-03-01T09:51:27.752Z,12.77
2023-03-01T09:53:57.580Z,19.33
2023-03-01T09:56:37.663Z,16.48
2023-03-01T09:59:33.412Z,18.65
2023-03-01T10:02:22.359Z,16.43
2023-03-01T10:04:50.232Z,15.65
2023-03-01T10:07:43.341Z,15.38
2023-03-01T10:10:26.556Z,17.67
2023-03-01T10:12:54.756Z,14.32
2023-03-01T10:15:41.494Z,21.73
2023-03-01T10:18:17.457Z,16.60
2023-03-01T10:20:52.185Z,19.83
2023-03-01T10:23:19.005Z,20.98
2023-03-01T10:25:57.010Z,16.00
2023-03-01T10:28:45.623Z,25.70
2023-03-01T10:31:22.708Z,15.45
2023-03-01T10:33:49.483Z,14.68
2023-03-01T10:36:16.478Z,12.50
2023-03-01T10:38:58.286Z,18.88
2023-03-01T10:41:31.182Z,14.38
2023-03-01T10:43:59.768Z,9.27
2023-03-01T10:46:34.188Z,14.75
2023-03-01T10:49:19.611Z,12.07
2023-03-01T10:51:49.875Z,15.20
2023-03-01T10:54:20.207Z,11.80
2023-03-01T10:56:51.937Z,12.25
2023-03-01T10:59:31.902Z,11.68
2023-03-01T11:02:24.378Z,10.25
2023-03-01T11:05:13.853Z,9.30
2023-03-01T11:07:54.384Z,9.50
2023-03-01T11:10:27.622Z,8.68
2023-03-01T11:12:57.206Z,7.43
2023-03-01T11:15:28.753Z,10.90
2023-03-01T11:18:05.915Z,6.45
2023-03-01T11:20:37.446Z,9.07
2023-03-01T11:23:09.945Z,9.65
2023-03-01T11:25:40.250Z,14.93
2023-03-01T11:28:12.151Z,9.40
2023-03-01T11:31:08.841Z,8.48
2023-03-01T11:33:49.108Z,7.28
2023-03-01T11:36:47.381Z,5.95
2023-03-01T11:39:20.395Z,6.13
2023-03-01T11:41:53.183Z,8.98
2023-03-01T11:44:30.281Z,10.55
2023-03-01T11:47:16.299Z,6.22
2023-03-01T11:52:53.365Z,8.25
2023-03-01T11:55:37.807Z,8.73
2023-03-01T11:58:34.469Z,11.65
2023-03-01T12:01:42.173Z,7.43
2023-03-01T12:04:43.389Z,7.95
2023-03-01T12:07:31.305Z,8.50
2023-03-01T12:10:20.057Z,9.35
2023-03-01T12:12:59.238Z,9.05
2023-03-01T12:15:39.808Z,10.52
2023-03-01T12:18:36.063Z,9.70
2023-03-01T12:21:21.641Z,9.80
2023-03-01T12:23:56.983Z,7.53
2023-03-01T12:26:32.578Z,11.43
2023-03-01T12:29:20.768Z,6.75
2023-03-01T12:32:07.337Z,7.80
2023-03-01T12:34:55.249Z,8.35
2023-03-01T12:37:43.185Z,7.47
2023-03-01T12:40:43.296Z,12.20
2023-03-01T12:43:37.607Z,5.75
2023-03-01T12:46:36.889Z,7.72
2023-03-01T12:49:16.603Z,11.70
2023-03-01T12:52:02.705Z,6.30
2023-03-01T12:54:36.505Z,7.72
2023-03-01T12:57:22.420Z,9.60
2023-03-01T13:00:29.472Z,7.20
2023-03-01T13:03:44.581Z,5.32
2023-03-01T13:06:42.514Z,13.38
2023-03-01T13:09:34.265Z,6.75
2023-03-01T13:12:02.887Z,6.55
2023-03-01T13:14:33.960Z,5.35
2023-03-01T13:17:00.850Z,7.30
2023-03-01T13:19:30.378Z,13.55
2023-03-01T13:21:57.573Z,9.68
2023-03-01T13:24:50.948Z,11.52
2023-03-01T13:27:18.067Z,7.75
2023-03-01T13:29:49.219Z,8.05
2023-03-01T13:32:48.860Z,7.80
2023-03-01T13:35:15.694Z,11.88
2023-03-01T13:37:43.468Z,8.07
2023-03-01T13:40:19.209Z,10.68
2023-03-01T13:45:44.170Z,9.10
2023-03-01T13:48:23.745Z,13.18
2023-03-01T13:51:05.718Z,7.20
2023-03-01T13:53:36.759Z,10.55
2023-03-01T13:56:20.311Z,6.93
2023-03-01T13:58:56.767Z,8.52
2023-03-01T14:01:25.542Z,13.20
2023-03-01T14:03:52.733Z,9.48
2023-03-01T14:06:31.517Z,7.00
2023-03-01T14:09:17.136Z,8.57
2023-03-01T14:12:19.678Z,14.55
2023-03-01T14:15:08.275Z,10.75
2023-03-01T14:17:55.978Z,4.75
2023-03-01T14:20:28.972Z,6.38
2023-03-01T14:23:02.664Z,5.75
2023-03-01T14:25:34.792Z,10.82
2023-03-01T14:28:20.578Z,7.03
2023-03-01T14:30:50.256Z,7.97
2023-03-01T14:33:28.939Z,7.97
2023-03-01T14:36:00.269Z,6.20
2023-03-01T14:38:38.291Z,10.93
2023-03-01T14:41:18.060Z,6.85
2023-03-01T14:43:48.579Z,7.30
2023-03-01T14:46:37.094Z,7.20
2023-03-01T14:49:17.947Z,8.30
2023-03-01T14:51:54.482Z,9.13
2023-03-01T14:54:35.912Z,6.22
2023-03-01T14:57:03.575Z,5.97
2023-03-01T14:59:30.731Z,7.05
2023-03-01T15:01:59.035Z,6.97
2023-03-01T15:04:28.313Z,8.68
2023-03-01T15:06:56.891Z,8.25
2023-03-01T15:09:24.209Z,10.45
2023-03-01T15:11:51.160Z,8.23
2023-03-01T15:15:01.486Z,7.47
2023-03-01T15:17:33.966Z,10.52
2023-03-01T15:20:06.298Z,10.07
2023-03-01T15:22:33.315Z,6.57
2023-03-01T15:25:01.217Z,10.60
2023-03-01T15:27:28.815Z,7.80
2023-03-01T15:30:01.512Z,10.98
2023-03-01T15:32:36.400Z,8.05
2023-03-01T15:35:41.764Z,10.97
2023-03-01T15:38:57.205Z,12.13
2023-03-01T15:41:34.247Z,10.55
2023-03-01T15:44:15.936Z,9.80
2023-03-01T15:46:47.763Z,9.57
2023-03-01T15:49:29.371Z,10.48
2023-03-01T15:51:56.265Z,10.10
2023-03-01T15:54:27.178Z,6.68
2023-03-01T15:56:55.353Z,7.90
2023-03-01T15:59:23.197Z,9.48
2023-03-01T16:01:50.055Z,8.35
2023-03-01T16:04:20.007Z,11.57
2023-03-01T16:06:47.439Z,14.27
2023-03-01T16:09:14.207Z,10.23
2023-03-01T16:11:40.992Z,8.98
2023-03-01T16:14:09.503Z,8.35
2023-03-01T16:16:36.664Z,11.30
2023-03-01T16:19:03.477Z,13.77
2023-03-01T16:21:32.578Z,13.95
2023-03-01T16:24:00.440Z,11.27
2023-03-01T16:26:27.340Z,8.13
2023-03-01T16:28:58.473Z,14.25
2023-03-01T16:31:26.878Z,18.48
2023-03-01T16:33:58.739Z,13.18
2023-03-01T16:36:27.450Z,13.73
2023-03-01T16:38:54.873Z,14.10
2023-03-01T16:41:23.594Z,14.57
2023-03-01T16:43:51.261Z,14.93
2023-03-01T16:46:21.359Z,12.85
2023-03-01T16:48:49.793Z,13.90
2023-03-01T16:51:16.848Z,13.10
2023-03-01T16:53:46.285Z,14.52
2023-03-01T16:56:16.608Z,16.08
2023-03-01T16:58:49.197Z,16.02
2023-03-01T17:01:19.183Z,17.48
2023-03-01T17:03:48.569Z,19.73
2023-03-01T17:06:19.881Z,14.23
2023-03-01T17:08:48.858Z,16.00
2023-03-01T17:11:19.506Z,15.18
2023-03-01T17:13:47.039Z,14.77
2023-03-01T17:16:16.735Z,21.08
2023-03-01T17:18:44.142Z,13.65
2023-03-01T17:21:11.663Z,15.10
2023-03-01T17:23:41.118Z,10.57
2023-03-01T17:26:08.837Z,16.73
2023-03-01T17:28:37.358Z,19.65
2023-03-01T17:31:07.021Z,13.95
2023-03-01T17:33:34.617Z,15.63
2023-03-01T17:36:05.588Z,19.35
2023-03-01T17:38:33.145Z,17.45
2023-03-01T17:41:01.409Z,14.85
2023-03-01T17:43:53.239Z,17.30
2023-03-01T17:46:20.469Z,13.82
2023-03-01T17:48:47.473Z,16.38
2023-03-01T17:51:15.093Z,23.50
2023-03-01T17:53:46.006Z,16.48
2023-03-01T17:56:12.830Z,15.18
2023-03-01T17:58:39.742Z,19.65
2023-03-01T18:01:16.451Z,15.93
2023-03-01T18:06:23.379Z,31.40
2023-03-01T18:08:51.574Z,41.17
2023-03-01T18:11:22.444Z,47.60
2023-03-01T18:13:55.223Z,55.17
2023-03-01T18:16:23.437Z,36.95
2023-03-01T18:18:55.843Z,30.58
2023-03-01T18:21:23.160Z,22.88
2023-03-01T18:23:50.185Z,23.15
2023-03-01T18:26:17.897Z,25.42
2023-03-01T18:28:45.424Z,24.05
2023-03-01T18:31:12.240Z,28.48
2023-03-01T18:33:40.307Z,20.50
2023-03-01T18:36:17.837Z,18.65
2023-03-01T18:38:44.712Z,23.58
2023-03-01T18:41:12.452Z,18.27
2023-03-01T18:43:39.572Z,18.38
2023-03-01T18:46:06.510Z,23.20
2023-03-01T18:48:34.086Z,23.50
2023-03-01T18:51:12.051Z,22.63
2023-03-01T18:53:38.752Z,23.67
2023-03-01T18:56:06.664Z,23.65
2023-03-01T18:58:33.686Z,23.73
2023-03-01T19:01:01.241Z,28.80
2023-03-01T19:03:28.046Z,26.05
2023-03-01T19:05:55.325Z,26.98
2023-03-01T19:08:22.693Z,24.58
2023-03-01T19:10:57.222Z,27.60
2023-03-01T19:13:24.342Z,33.85
2023-03-01T19:15:51.252Z,30.35
2023-03-01T19:18:18.632Z,27.08
2023-03-01T19:20:46.755Z,28.60
2023-03-01T19:23:15.333Z,22.40
2023-03-01T19:25:42.206Z,22.63
2023-03-01T19:28:09.008Z,22.98
2023-03-01T19:30:35.725Z,29.35
2023-03-01T19:33:03.997Z,22.30
2023-03-01T19:35:30.849Z,27.40
2023-03-01T19:37:57.697Z,26.27
2023-03-01T19:40:24.614Z,21.33
2023-03-01T19:42:56.327Z,21.65
2023-03-01T19:45:32.895Z,24.33
2023-03-01T19:47:59.997Z,24.02
2023-03-01T19:50:26.951Z,23.38
2023-03-01T19:52:53.712Z,23.10
2023-03-01T19:55:20.554Z,27.33
2023-03-01T19:57:47.318Z,25.58
2023-03-01T20:00:14.602Z,28.92
2023-03-01T20:02:41.363Z,24.67
2023-03-01T20:05:08.519Z,29.60
2023-03-01T20:07:35.483Z,29.20
2023-03-01T20:10:02.772Z,32.42
2023-03-01T20:12:29.647Z,25.75
2023-03-01T20:14:56.655Z,27.10
2023-03-01T20:17:23.472Z,29.10
2023-03-01T20:19:51.557Z,34.10
2023-03-01T20:22:19.215Z,26.40
2023-03-01T20:24:46.061Z,29.88
2023-03-01T20:27:14.326Z,24.20
2023-03-01T20:29:41.951Z,25.83
2023-03-01T20:32:09.354Z,22.90
2023-03-01T20:34:36.910Z,25.25
2023-03-01T20:37:04.313Z,35.90
2023-03-01T20:39:31.009Z,31.63
2023-03-01T20:41:57.784Z,29.63
2023-03-01T20:44:24.453Z,28.73
2023-03-01T20:46:51.199Z,28.65
2023-03-01T20:49:17.928Z,28.45
2023-03-01T20:51:44.649Z,29.98
2023-03-01T20:54:11.426Z,28.48
2023-03-01T20:56:38.275Z,31.80
2023-03-01T20:59:06.767Z,30.65
2023-03-01T21:01:33.542Z,26.67
2023-03-01T21:04:00.383Z,24.98
2023-03-01T21:06:27.205Z,36.33
2023-03-01T21:08:55.199Z,40.22
2023-03-01T21:11:22.339Z,25.67
2023-03-01T21:13:49.008Z,30.02
2023-03-01T21:16:15.774Z,25.77
2023-03-01T21:18:43.076Z,32.55
2023-03-01T21:21:18.589Z,23.13
2023-03-01T21:26:18.713Z,29.95
2023-03-01T21:28:46.162Z,30.40
2023-03-01T21:31:36.597Z,29.83
2023-03-01T21:34:13.062Z,26.63
2023-03-01T21:36:43.858Z,26.92
2023-03-01T21:39:10.668Z,26.95
2023-03-01T21:41:42.277Z,36.00
2023-03-01T21:44:09.432Z,29.83
2023-03-01T21:46:39.611Z,32.20
2023-03-01T21:49:13.622Z,29.95
2023-03-01T21:51:40.664Z,32.67
2023-03-01T21:54:08.132Z,30.98
2023-03-01T21:56:35.757Z,29.88
2023-03-01T21:59:03.765Z,29.05
2023-03-01T22:01:31.174Z,31.70
2023-03-01T22:04:00.609Z,37.05
2023-03-01T22:06:35.907Z,32.90
2023-03-01T22:09:05.712Z,27.25
2023-03-01T22:11:35.987Z,37.08
2023-03-01T22:14:15.185Z,38.60
2023-03-01T22:16:49.153Z,39.85
2023-03-01T22:19:19.168Z,40.22
2023-03-01T22:21:54.640Z,36.50
2023-03-01T22:24:36.065Z,35.83
2023-03-01T22:27:16.569Z,39.55
2023-03-01T22:29:51.095Z,39.35
2023-03-01T22:32:29.916Z,31.58
2023-03-01T22:35:02.587Z,35.85
2023-03-01T22:37:31.734Z,38.22
2023-03-01T22:40:15.581Z,36.42
2023-03-01T22:42:47.585Z,31.67
2023-03-01T22:45:18.114Z,31.63
2023-03-01T22:47:47.466Z,30.50
2023-03-01T22:50:17.488Z,27.90
2023-03-01T22:52:46.541Z,29.70
2023-03-01T22:55:13.330Z,27.27
2023-03-01T22:57:40.016Z,32.15
2023-03-01T23:00:08.666Z,28.17
2023-03-01T23:02:35.418Z,35.20
2023-03-01T23:05:02.072Z,37.33
2023-03-01T23:07:28.684Z,30.58
2023-03-01T23:09:55.474Z,37.33
2023-03-01T23:12:22.196Z,44.20
2023-03-01T23:14:48.984Z,39.80
2023-03-01T23:17:15.806Z,41.65
2023-03-01T23:19:43.959Z,35.33
2023-03-01T23:22:10.653Z,30.80
2023-03-01T23:24:37.534Z,33.55
2023-03-01T23:27:04.591Z,35.58
2023-03-01T23:29:32.053Z,30.90
2023-03-01T23:31:59.364Z,31.73
2023-03-01T23:34:26.569Z,28.60
2023-03-01T23:36:54.536Z,30.25
2023-03-01T23:39:21.848Z,33.47
2023-03-01T23:41:48.600Z,26.77
2023-03-01T23:44:17.710Z,27.45
2023-03-01T23:46:45.840Z,31.05
2023-03-01T23:49:15.094Z,30.17
2023-03-01T23:51:42.730Z,29.42
2023-03-01T23:54:10.773Z,28.70
2023-03-01T23:56:39.521Z,31.00
2023-03-01T23:59:12.007Z,30.13
